Terminal Aerodrome Forecast
Issued by NWS

Home | Current Version | Previous Version | Text Only | Print | Product List | Glossary On
Versions: 1 2 3 4 5 6 7 8 9 10 11 12 13 14 15 16 17
000
FTUS43 KSGF 011100
TAFJLN
TAF
KJLN 011120Z 0112/0212 18009KT P6SM BKN100 OVC250 WS015/23040KT
     FM011500 21013G21KT P6SM SCT050 BKN100 OVC250
     FM012000 20015G23KT P6SM SCT050 BKN250
     FM020200 19014G22KT P6SM VCTS SCT040CB OVC100
     FM020500 20013G20KT P6SM VCTS SCT040CB OVC100 WS020/24052KT=

USA.gov is the U.S. government's official web portal to all federal, state and local government web resources and services.